Pickton, Texas
Current Conditions -  °F | °C
As of 1:35 PM on Thursday 27 Nov 2014 (Local Time) from KSLR Reporting Station
Clear Clear  
Wind Chill: 57°   Ceiling: Unl
Heat Index: 57°   Visibility: 10mi
Dew Point: 15°   Wind: 7mph
Humidity: 19%   Direction: 50°NE
Pressure: 30.47"   Gusts: NA
Location:  33.03°N, 95.39°W
Report Text: KSLR 271935Z AUTO 05006KT 10SM CLR 14/M09 A3047 RMK AO2 T01401092
Loading
Personal Weather Stations






























Interactive Weather Map New forecast layout! Learn more

10-Day Weather Forecast

Advertisements
Track Severe Weather on mobile